createdAt,value
2019-03-20T00:00:28.288Z,8.70
2019-03-20T00:02:57.372Z,9.60
2019-03-20T00:05:26.992Z,9.40
2019-03-20T00:07:56.135Z,9.10
2019-03-20T00:10:25.593Z,8.67
2019-03-20T00:12:54.917Z,8.73
2019-03-20T00:15:24.168Z,10.03
2019-03-20T00:17:53.641Z,9.93
2019-03-20T00:20:22.764Z,10.63
2019-03-20T00:22:52.240Z,10.43
2019-03-20T00:25:21.420Z,10.23
2019-03-20T00:27:50.959Z,9.40
2019-03-20T00:30:20.775Z,9.83
2019-03-20T00:32:49.864Z,9.63
2019-03-20T00:35:19.196Z,10.47
2019-03-20T00:37:48.534Z,11.15
2019-03-20T00:40:18.116Z,9.77
2019-03-20T00:42:47.452Z,10.03
2019-03-20T00:45:17.366Z,9.67
2019-03-20T00:47:46.635Z,10.37
2019-03-20T00:50:16.182Z,10.27
2019-03-20T00:52:45.418Z,9.43
2019-03-20T00:55:15.200Z,10.00
2019-03-20T00:57:45.258Z,9.00
2019-03-20T01:02:50.875Z,9.17
2019-03-20T01:05:20.416Z,9.43
2019-03-20T01:07:49.965Z,9.10
2019-03-20T01:10:19.247Z,9.97
2019-03-20T01:12:48.328Z,11.00
2019-03-20T01:15:17.523Z,9.60
2019-03-20T01:17:46.616Z,8.97
2019-03-20T01:20:16.799Z,9.43
2019-03-20T01:22:46.040Z,8.90
2019-03-20T01:25:15.667Z,9.37
2019-03-20T01:27:44.759Z,8.50
2019-03-20T01:30:34.110Z,8.78
2019-03-20T01:33:05.220Z,9.37
2019-03-20T01:35:34.553Z,9.50
2019-03-20T01:38:33.883Z,10.15
2019-03-20T01:41:03.019Z,8.90
2019-03-20T01:43:32.427Z,9.13
2019-03-20T01:46:03.529Z,8.93
2019-03-20T01:48:32.511Z,9.20
2019-03-20T01:51:21.364Z,9.70
2019-03-20T01:53:50.438Z,9.43
2019-03-20T01:56:19.430Z,9.73
2019-03-20T01:58:49.247Z,9.10
2019-03-20T02:01:18.383Z,9.57
2019-03-20T02:03:47.661Z,10.17
2019-03-20T02:06:17.998Z,9.60
2019-03-20T02:08:47.572Z,10.03
2019-03-20T02:11:16.889Z,10.90
2019-03-20T02:13:51.215Z,8.80
2019-03-20T02:16:21.696Z,9.03
2019-03-20T02:18:51.636Z,9.27
2019-03-20T02:21:21.008Z,9.18
2019-03-20T02:23:50.968Z,9.83
2019-03-20T02:26:20.143Z,9.93
2019-03-20T02:28:49.744Z,9.53
2019-03-20T02:31:22.616Z,8.80
2019-03-20T02:33:51.993Z,9.07
2019-03-20T02:36:25.521Z,9.10
2019-03-20T02:38:54.829Z,8.60
2019-03-20T02:41:24.162Z,9.07
2019-03-20T02:43:53.152Z,9.10
2019-03-20T02:46:22.181Z,8.57
2019-03-20T02:48:51.251Z,9.40
2019-03-20T02:51:20.357Z,10.10
2019-03-20T02:53:49.405Z,8.67
2019-03-20T02:56:18.738Z,9.53
2019-03-20T02:58:48.631Z,9.93
2019-03-20T03:01:17.670Z,9.23
2019-03-20T03:03:47.149Z,8.50
2019-03-20T03:06:16.461Z,9.00
2019-03-20T03:08:45.878Z,9.07
2019-03-20T03:11:15.274Z,8.87
2019-03-20T03:13:44.802Z,8.97
2019-03-20T03:16:15.828Z,8.37
2019-03-20T03:18:44.897Z,8.97
2019-03-20T03:21:14.302Z,8.73
2019-03-20T03:23:43.380Z,8.90
2019-03-20T03:26:12.761Z,8.85
2019-03-20T03:28:42.100Z,9.60
2019-03-20T03:31:11.238Z,9.77
2019-03-20T03:33:40.564Z,9.27
2019-03-20T03:36:20.699Z,9.30
2019-03-20T03:38:40.759Z,10.10
2019-03-20T03:41:09.920Z,9.40
2019-03-20T03:43:38.971Z,9.63
2019-03-20T03:46:08.172Z,8.27
2019-03-20T03:48:37.341Z,9.17
2019-03-20T03:51:09.129Z,9.65
2019-03-20T03:53:38.176Z,8.93
2019-03-20T03:56:07.538Z,9.68
2019-03-20T03:58:36.869Z,9.33
2019-03-20T04:01:05.980Z,8.97
2019-03-20T04:03:36.831Z,8.30
2019-03-20T04:06:06.043Z,8.60
2019-03-20T04:08:36.155Z,9.10
2019-03-20T04:11:05.334Z,9.40
2019-03-20T04:13:34.733Z,8.77
2019-03-20T04:16:03.835Z,8.53
2019-03-20T04:18:33.175Z,8.93
2019-03-20T04:21:02.246Z,8.70
2019-03-20T04:23:31.281Z,9.07
2019-03-20T04:26:00.934Z,8.60
2019-03-20T04:28:30.005Z,8.90
2019-03-20T04:31:02.550Z,8.97
2019-03-20T04:33:32.732Z,8.17
2019-03-20T04:36:02.806Z,8.17
2019-03-20T04:38:32.460Z,8.13
2019-03-20T04:41:01.726Z,9.23
2019-03-20T04:43:31.286Z,8.70
2019-03-20T04:46:00.319Z,9.00
2019-03-20T04:48:29.372Z,8.53
2019-03-20T04:50:58.460Z,8.50
2019-03-20T04:53:27.548Z,8.07
2019-03-20T04:55:57.100Z,8.53
2019-03-20T04:58:28.635Z,9.00
2019-03-20T05:00:58.200Z,8.37
2019-03-20T05:03:27.335Z,8.38
2019-03-20T05:05:56.443Z,8.90
2019-03-20T05:08:26.315Z,8.50
2019-03-20T05:10:55.600Z,8.43
2019-03-20T05:13:24.584Z,8.00
2019-03-20T05:15:53.620Z,8.23
2019-03-20T05:18:22.928Z,9.10
2019-03-20T05:20:53.404Z,8.07
2019-03-20T05:23:22.508Z,8.23
2019-03-20T05:28:25.980Z,8.50
2019-03-20T05:30:55.103Z,8.30
2019-03-20T05:33:24.460Z,8.68
2019-03-20T05:35:53.799Z,7.97
2019-03-20T05:38:23.104Z,8.37
2019-03-20T05:40:52.420Z,9.03
2019-03-20T05:43:22.036Z,8.50
2019-03-20T05:45:51.124Z,7.93
2019-03-20T05:48:20.559Z,7.87
2019-03-20T05:50:49.660Z,8.50
2019-03-20T05:55:54.088Z,8.13
2019-03-20T05:58:23.149Z,8.53
2019-03-20T06:00:52.262Z,8.10
2019-03-20T06:03:22.043Z,8.03
2019-03-20T06:05:52.499Z,8.07
2019-03-20T06:08:21.956Z,7.97
2019-03-20T06:10:51.329Z,8.03
2019-03-20T06:13:20.380Z,8.73
2019-03-20T06:15:49.532Z,7.43
2019-03-20T06:18:18.590Z,7.93
2019-03-20T06:20:47.676Z,7.70
2019-03-20T06:23:16.691Z,8.90
2019-03-20T06:25:45.792Z,8.60
2019-03-20T06:28:14.960Z,7.23
2019-03-20T06:30:44.098Z,8.33
2019-03-20T06:33:13.690Z,7.87
2019-03-20T06:35:42.784Z,8.20
2019-03-20T06:38:11.936Z,8.10
2019-03-20T06:40:41.124Z,7.47
2019-03-20T06:43:10.212Z,8.27
2019-03-20T06:45:39.605Z,8.97
2019-03-20T06:50:44.945Z,8.80
2019-03-20T06:53:14.348Z,8.67
2019-03-20T06:55:43.702Z,8.28
2019-03-20T06:58:13.244Z,9.20
2019-03-20T07:01:13.863Z,8.60
2019-03-20T07:04:01.308Z,8.37
2019-03-20T07:06:40.492Z,7.93
2019-03-20T07:09:13.708Z,8.20
2019-03-20T07:11:42.856Z,8.33
2019-03-20T07:14:18.940Z,8.17
2019-03-20T07:16:56.296Z,7.63
2019-03-20T07:19:25.465Z,8.40
2019-03-20T07:21:55.115Z,8.33
2019-03-20T07:24:28.520Z,8.50
2019-03-20T07:26:57.945Z,7.57
2019-03-20T07:29:27.230Z,8.37
2019-03-20T07:31:56.768Z,8.13
2019-03-20T07:34:26.200Z,7.80
2019-03-20T07:36:55.375Z,8.77
2019-03-20T07:39:24.604Z,7.47
2019-03-20T07:41:53.787Z,7.43
2019-03-20T07:44:23.141Z,7.57
2019-03-20T07:46:52.745Z,7.43
2019-03-20T07:49:21.753Z,8.05
2019-03-20T07:51:50.826Z,8.30
2019-03-20T07:54:21.357Z,8.13
2019-03-20T07:56:50.516Z,8.58
2019-03-20T07:59:19.639Z,7.87
2019-03-20T08:01:48.924Z,8.43
2019-03-20T08:04:18.193Z,7.72
2019-03-20T08:06:47.524Z,8.00
2019-03-20T08:09:16.939Z,8.30
2019-03-20T08:11:46.316Z,8.33
2019-03-20T08:14:15.575Z,8.13
2019-03-20T08:16:45.503Z,9.73
2019-03-20T08:19:14.816Z,8.83
2019-03-20T08:21:43.960Z,8.90
2019-03-20T08:24:13.040Z,8.83
2019-03-20T08:26:42.121Z,8.07
2019-03-20T08:29:11.263Z,7.90
2019-03-20T08:31:40.578Z,8.17
2019-03-20T08:34:09.637Z,8.27
2019-03-20T08:36:38.936Z,8.15
2019-03-20T08:39:08.059Z,8.70
2019-03-20T08:41:38.154Z,8.33
2019-03-20T08:44:07.127Z,7.80
2019-03-20T08:46:36.810Z,8.23
2019-03-20T08:49:05.968Z,8.27
2019-03-20T08:51:35.377Z,7.83
2019-03-20T08:54:04.701Z,8.10
2019-03-20T08:59:08.742Z,7.80
2019-03-20T09:01:38.352Z,7.90
2019-03-20T09:04:07.724Z,8.40
2019-03-20T09:06:37.164Z,8.50
2019-03-20T09:09:08.728Z,8.37
2019-03-20T09:11:37.868Z,8.17
2019-03-20T09:14:07.973Z,7.63
2019-03-20T09:16:37.276Z,8.07
2019-03-20T09:19:06.552Z,7.58
2019-03-20T09:21:37.082Z,8.40
2019-03-20T09:24:06.145Z,8.43
2019-03-20T09:26:35.328Z,8.73
2019-03-20T09:29:04.399Z,8.20
2019-03-20T09:31:34.000Z,9.13
2019-03-20T09:34:07.172Z,8.27
2019-03-20T09:36:43.342Z,8.80
2019-03-20T09:39:11.287Z,9.23
2019-03-20T09:41:40.620Z,9.60
2019-03-20T09:44:10.132Z,8.67
2019-03-20T09:46:40.184Z,9.47
2019-03-20T09:49:09.328Z,8.57
2019-03-20T09:51:38.438Z,8.43
2019-03-20T09:54:07.777Z,8.13
2019-03-20T09:56:36.911Z,8.23
2019-03-20T09:59:06.268Z,8.37
2019-03-20T10:01:35.629Z,9.43
2019-03-20T10:04:05.156Z,7.93
2019-03-20T10:06:34.176Z,7.93
2019-03-20T10:09:15.861Z,8.20
2019-03-20T10:11:50.549Z,7.17
2019-03-20T10:14:19.632Z,7.97
2019-03-20T10:16:48.708Z,8.20
2019-03-20T10:19:19.053Z,7.53
2019-03-20T10:21:48.761Z,8.07
2019-03-20T10:24:18.200Z,7.73
2019-03-20T10:26:47.401Z,8.23
2019-03-20T10:29:16.791Z,8.10
2019-03-20T10:31:45.864Z,7.40
2019-03-20T10:36:50.876Z,7.15
2019-03-20T10:39:19.968Z,7.30
2019-03-20T10:41:50.536Z,7.65
2019-03-20T10:44:19.548Z,7.80
2019-03-20T10:46:48.533Z,7.53
2019-03-20T10:49:17.992Z,7.30
2019-03-20T10:51:47.115Z,7.07
2019-03-20T10:54:16.697Z,7.00
2019-03-20T10:56:46.108Z,7.10
2019-03-20T10:59:17.549Z,7.53
2019-03-20T11:01:46.881Z,7.20
2019-03-20T11:04:16.120Z,7.33
2019-03-20T11:06:45.444Z,7.00
2019-03-20T11:09:18.440Z,7.00
2019-03-20T11:11:45.745Z,6.57
2019-03-20T11:14:15.459Z,6.93
2019-03-20T11:16:45.807Z,6.50
2019-03-20T11:19:15.189Z,7.37
2019-03-20T11:21:45.796Z,7.20
2019-03-20T11:24:15.377Z,6.63
2019-03-20T11:26:44.580Z,7.27
2019-03-20T11:29:13.752Z,7.10
2019-03-20T11:31:42.876Z,6.50
2019-03-20T11:34:15.584Z,6.63
2019-03-20T11:36:44.620Z,5.67
2019-03-20T11:39:13.948Z,6.20
2019-03-20T11:41:43.577Z,6.30
2019-03-20T11:44:12.667Z,5.63
2019-03-20T11:46:42.084Z,5.90
2019-03-20T11:49:11.972Z,5.60
2019-03-20T11:51:41.623Z,4.87
2019-03-20T11:54:11.096Z,5.30
2019-03-20T11:56:43.636Z,5.23
2019-03-20T12:02:04.265Z,4.60
2019-03-20T12:04:33.380Z,4.63
2019-03-20T12:07:03.140Z,4.77
2019-03-20T12:09:41.064Z,4.67
2019-03-20T12:12:04.600Z,4.90
2019-03-20T12:14:33.725Z,5.30
2019-03-20T12:17:03.094Z,4.67
2019-03-20T12:19:44.461Z,4.07
2019-03-20T12:22:03.619Z,4.83
2019-03-20T12:24:37.237Z,4.40
2019-03-20T12:27:14.756Z,3.83
2019-03-20T12:29:37.409Z,3.43
2019-03-20T12:32:06.721Z,3.83
2019-03-20T12:34:35.694Z,3.60
2019-03-20T12:37:04.860Z,3.87
2019-03-20T12:39:38.346Z,2.93
2019-03-20T12:42:07.644Z,3.70
2019-03-20T12:44:37.072Z,3.43
2019-03-20T12:47:06.278Z,3.50
2019-03-20T12:49:35.707Z,2.60
2019-03-20T12:52:05.076Z,2.63
2019-03-20T12:54:34.332Z,2.10
2019-03-20T12:57:03.677Z,1.97
2019-03-20T12:59:32.664Z,2.20
2019-03-20T13:02:01.876Z,2.20
2019-03-20T13:04:31.304Z,2.23
2019-03-20T13:07:01.326Z,2.13
2019-03-20T13:09:30.396Z,1.80
2019-03-20T13:11:59.734Z,1.90
2019-03-20T13:14:29.068Z,2.37
2019-03-20T13:16:58.420Z,2.63
2019-03-20T13:19:27.510Z,2.33
2019-03-20T13:21:56.908Z,2.80
2019-03-20T13:24:26.283Z,2.60
2019-03-20T13:26:55.355Z,2.70
2019-03-20T13:29:24.539Z,2.13
2019-03-20T13:31:53.584Z,2.50
2019-03-20T13:34:22.706Z,2.37
2019-03-20T13:36:52.013Z,2.17
2019-03-20T13:39:21.372Z,2.30
2019-03-20T13:41:50.491Z,2.70
2019-03-20T13:44:19.824Z,3.20
2019-03-20T13:46:49.128Z,3.00
2019-03-20T13:49:18.304Z,2.90
2019-03-20T13:51:47.722Z,2.40
2019-03-20T13:54:16.820Z,2.58
2019-03-20T13:56:46.411Z,2.20
2019-03-20T13:59:16.019Z,2.50
2019-03-20T14:01:45.102Z,2.73
2019-03-20T14:04:29.764Z,2.63
2019-03-20T14:06:59.051Z,2.10
2019-03-20T14:09:28.480Z,1.90
2019-03-20T14:11:57.587Z,2.70
2019-03-20T14:14:27.383Z,1.90
2019-03-20T14:16:56.996Z,2.37
2019-03-20T14:19:26.048Z,2.20
2019-03-20T14:21:55.369Z,1.80
2019-03-20T14:24:24.776Z,1.90
2019-03-20T14:26:53.845Z,2.00
2019-03-20T14:29:42.350Z,1.53
2019-03-20T14:32:11.771Z,1.90
2019-03-20T14:34:41.154Z,1.80
2019-03-20T14:37:11.278Z,2.07
2019-03-20T14:39:40.414Z,2.00
2019-03-20T14:42:09.882Z,2.00
2019-03-20T14:44:39.377Z,2.33
2019-03-20T14:47:08.884Z,2.20
2019-03-20T14:49:38.716Z,1.90
2019-03-20T14:52:08.181Z,2.00
2019-03-20T14:54:37.526Z,2.50
2019-03-20T14:57:08.097Z,2.60
2019-03-20T14:59:37.452Z,2.50
2019-03-20T15:02:06.612Z,2.50
2019-03-20T15:04:36.236Z,2.27
2019-03-20T15:07:05.588Z,2.12
2019-03-20T15:09:34.685Z,2.33
2019-03-20T15:14:38.544Z,2.17
2019-03-20T15:17:07.618Z,2.37
2019-03-20T15:19:37.672Z,2.50
2019-03-20T15:22:06.864Z,2.60
2019-03-20T15:24:36.448Z,2.80
2019-03-20T15:27:05.575Z,3.02
2019-03-20T15:29:37.011Z,2.77
2019-03-20T15:32:10.301Z,2.75
2019-03-20T15:34:39.636Z,2.97
2019-03-20T15:37:09.952Z,3.20
2019-03-20T15:39:39.032Z,3.13
2019-03-20T15:42:08.868Z,3.60
2019-03-20T15:44:37.932Z,3.75
2019-03-20T15:47:06.984Z,3.65
2019-03-20T15:49:36.164Z,3.70
2019-03-20T15:52:05.309Z,3.00
2019-03-20T15:54:34.447Z,3.83
2019-03-20T15:57:03.521Z,3.10
2019-03-20T15:59:32.592Z,3.17
2019-03-20T16:02:01.714Z,3.13
2019-03-20T16:04:32.288Z,3.37
2019-03-20T16:07:01.578Z,3.30
2019-03-20T16:09:30.876Z,3.17
2019-03-20T16:12:03.265Z,3.27
2019-03-20T16:14:32.326Z,3.17
2019-03-20T16:17:01.657Z,3.67
2019-03-20T16:19:31.003Z,4.27
2019-03-20T16:22:00.080Z,3.47
2019-03-20T16:24:29.167Z,4.10
2019-03-20T16:26:58.290Z,3.40
2019-03-20T16:29:27.309Z,3.63
2019-03-20T16:31:56.360Z,3.15
2019-03-20T16:34:25.444Z,4.27
2019-03-20T16:36:54.757Z,3.87
2019-03-20T16:39:25.387Z,3.50
2019-03-20T16:41:54.829Z,4.20
2019-03-20T16:44:24.171Z,3.87
2019-03-20T16:46:53.488Z,4.13
2019-03-20T16:49:22.888Z,3.80
2019-03-20T16:51:52.410Z,3.77
2019-03-20T16:54:22.010Z,3.80
2019-03-20T16:56:51.107Z,4.10
2019-03-20T16:59:20.204Z,3.70
2019-03-20T17:01:50.406Z,4.70
2019-03-20T17:04:19.724Z,4.30
2019-03-20T17:06:48.852Z,3.80
2019-03-20T17:09:18.163Z,4.10
2019-03-20T17:14:22.672Z,3.90
2019-03-20T17:16:51.800Z,4.23
2019-03-20T17:19:21.000Z,4.47
2019-03-20T17:21:50.375Z,4.47
2019-03-20T17:24:19.461Z,4.37
2019-03-20T17:26:49.032Z,4.30
2019-03-20T17:29:18.160Z,4.03
2019-03-20T17:31:47.469Z,4.70
2019-03-20T17:34:16.663Z,4.63
2019-03-20T17:36:45.764Z,4.47
2019-03-20T17:39:15.464Z,5.30
2019-03-20T17:41:45.595Z,3.93
2019-03-20T17:44:15.224Z,4.10
2019-03-20T17:46:44.281Z,4.03
2019-03-20T17:49:13.399Z,4.43
2019-03-20T17:51:43.032Z,4.33
2019-03-20T17:54:12.230Z,5.10
2019-03-20T17:56:41.471Z,4.73
2019-03-20T17:59:10.440Z,5.10
2019-03-20T18:01:40.423Z,5.20
2019-03-20T18:04:09.763Z,4.60
2019-03-20T18:09:14.531Z,5.00
2019-03-20T18:11:47.376Z,5.12
2019-03-20T18:14:16.421Z,5.30
2019-03-20T18:16:45.795Z,5.40
2019-03-20T18:19:14.936Z,4.67
2019-03-20T18:21:44.287Z,5.00
2019-03-20T18:24:13.654Z,5.90
2019-03-20T18:26:43.032Z,5.70
2019-03-20T18:29:13.345Z,5.57
2019-03-20T18:31:46.227Z,5.15
2019-03-20T18:34:13.360Z,5.60
2019-03-20T18:36:45.344Z,5.03
2019-03-20T18:39:14.491Z,5.62
2019-03-20T18:41:57.224Z,4.87
2019-03-20T18:44:18.212Z,4.83
2019-03-20T18:46:48.096Z,4.60
2019-03-20T18:49:17.597Z,5.37
2019-03-20T18:51:47.089Z,5.10
2019-03-20T18:54:19.797Z,4.67
2019-03-20T18:56:48.906Z,5.27
2019-03-20T18:59:18.059Z,5.60
2019-03-20T19:01:47.184Z,6.00
2019-03-20T19:04:16.681Z,6.97
2019-03-20T19:06:45.764Z,7.13
2019-03-20T19:09:15.924Z,5.87
2019-03-20T19:11:45.349Z,6.90
2019-03-20T19:14:14.696Z,11.30
2019-03-20T19:16:43.853Z,9.83
2019-03-20T19:19:13.008Z,10.00
2019-03-20T19:21:45.659Z,10.33
2019-03-20T19:24:14.820Z,11.20
2019-03-20T19:26:43.897Z,10.50
2019-03-20T19:29:13.621Z,10.03
2019-03-20T19:31:42.800Z,11.70
2019-03-20T19:34:12.032Z,15.38
2019-03-20T19:36:41.467Z,10.93
2019-03-20T19:39:11.058Z,10.23
2019-03-20T19:41:40.490Z,10.83
2019-03-20T19:44:09.606Z,7.53
2019-03-20T19:46:39.200Z,6.10
2019-03-20T19:49:08.268Z,6.20
2019-03-20T19:51:37.611Z,5.43
2019-03-20T19:54:06.732Z,5.70
2019-03-20T19:56:35.826Z,6.20
2019-03-20T19:59:05.027Z,4.67
2019-03-20T20:01:34.355Z,5.23
2019-03-20T20:04:04.081Z,5.10
2019-03-20T20:06:33.184Z,4.43
2019-03-20T20:09:06.397Z,4.67
2019-03-20T20:11:39.436Z,3.90
2019-03-20T20:14:09.079Z,3.77
2019-03-20T20:16:38.521Z,4.20
2019-03-20T20:19:07.659Z,3.77
2019-03-20T20:21:36.840Z,4.33
2019-03-20T20:24:06.220Z,4.05
2019-03-20T20:26:36.469Z,4.40
2019-03-20T20:29:07.432Z,3.80
2019-03-20T20:31:36.508Z,4.23
2019-03-20T20:34:05.760Z,3.97
2019-03-20T20:36:35.444Z,3.90
2019-03-20T20:39:06.856Z,3.67
2019-03-20T20:41:36.290Z,3.98
2019-03-20T20:44:06.769Z,3.27
2019-03-20T20:46:36.080Z,3.63
2019-03-20T20:49:05.484Z,3.40
2019-03-20T20:51:34.900Z,3.30
2019-03-20T20:54:04.415Z,3.53
2019-03-20T20:56:33.508Z,4.77
2019-03-20T20:59:02.842Z,4.40
2019-03-20T21:01:32.296Z,4.43
2019-03-20T21:04:01.584Z,4.23
2019-03-20T21:06:33.656Z,5.37
2019-03-20T21:09:04.012Z,4.60
2019-03-20T21:11:37.692Z,7.20
2019-03-20T21:14:06.757Z,5.20
2019-03-20T21:16:36.548Z,5.90
2019-03-20T21:19:38.829Z,6.53
2019-03-20T21:22:45.845Z,6.60
2019-03-20T21:25:18.305Z,7.47
2019-03-20T21:28:37.202Z,6.77
2019-03-20T21:34:52.677Z,6.07
2019-03-20T21:37:49.127Z,5.73
2019-03-20T21:40:20.240Z,5.50
2019-03-20T21:43:51.918Z,9.40
2019-03-20T21:46:56.948Z,7.57
2019-03-20T21:49:26.820Z,6.07
2019-03-20T21:51:56.784Z,8.13
2019-03-20T21:55:02.509Z,8.37
2019-03-20T21:57:52.454Z,8.40
2019-03-20T22:01:01.594Z,8.57
2019-03-20T22:03:34.769Z,8.13
2019-03-20T22:06:40.764Z,8.33
2019-03-20T22:09:21.946Z,8.40
2019-03-20T22:12:31.020Z,9.30
2019-03-20T22:15:23.872Z,10.10
2019-03-20T22:18:55.151Z,10.80
2019-03-20T22:21:33.796Z,11.17
2019-03-20T22:24:38.571Z,10.63
2019-03-20T22:27:46.359Z,10.93
2019-03-20T22:30:17.615Z,10.80
2019-03-20T22:33:38.047Z,10.53
2019-03-20T22:36:21.021Z,9.27
2019-03-20T22:39:36.012Z,9.40
2019-03-20T22:42:32.208Z,8.97
2019-03-20T22:46:03.944Z,8.43
2019-03-20T22:49:06.554Z,6.73
2019-03-20T22:52:26.346Z,6.90
2019-03-20T22:55:37.389Z,6.83
2019-03-20T22:58:44.495Z,8.27
2019-03-20T23:01:23.958Z,9.70
2019-03-20T23:04:01.504Z,8.90
2019-03-20T23:06:31.092Z,11.27
2019-03-20T23:09:01.264Z,9.40
2019-03-20T23:11:31.280Z,8.63
2019-03-20T23:14:01.170Z,9.10
2019-03-20T23:16:32.756Z,9.60
2019-03-20T23:19:02.616Z,10.67
2019-03-20T23:21:32.303Z,8.97
2019-03-20T23:24:01.941Z,8.93
2019-03-20T23:26:31.575Z,9.20
2019-03-20T23:29:02.450Z,9.90
2019-03-20T23:31:33.020Z,8.97
2019-03-20T23:34:04.008Z,8.60
2019-03-20T23:36:33.905Z,8.67
2019-03-20T23:39:05.574Z,8.10
2019-03-20T23:41:35.435Z,8.53
2019-03-20T23:44:05.473Z,8.57
2019-03-20T23:46:34.992Z,7.93
2019-03-20T23:49:12.344Z,8.83
2019-03-20T23:51:42.159Z,9.20
2019-03-20T23:54:12.591Z,9.23
2019-03-20T23:56:44.524Z,9.53
2019-03-20T23:59:14.238Z,8.40
